Time;durP1;ratioP1;P1;durP2;ratioP2;P2;SDS_P1;SDS_P2;PMS_P1;PMS_P2;Temp;Humidity;BMP_temperature;BMP_pressure;BME280_temperature;BME280_humidity;BME280_pressure;Samples;Min_cycle;Max_cycle;Signal;HPM_P1;HPM_P2
2023/05/13 00:00:32;;;;;;;10.37;3.47;;;;;;;14.46;66.96;101498.22;5056454;28;20494;-77
2023/05/13 00:02:59;;;;;;;7.53;2.83;;;;;;;14.42;67.89;101498.00;5056156;28;20466;-77
2023/05/13 00:05:25;;;;;;;10.13;3.50;;;;;;;14.37;67.97;101501.66;5056623;28;20453;-78
2023/05/13 00:07:52;;;;;;;10.63;3.40;;;;;;;14.30;68.01;101500.47;5055858;28;20568;-77
2023/05/13 00:10:19;;;;;;;7.13;2.90;;;;;;;14.29;68.32;101498.81;5055595;28;20513;-77
2023/05/13 00:12:46;;;;;;;7.90;2.67;;;;;;;14.23;68.89;101500.84;5055647;28;20469;-77
2023/05/13 00:15:13;;;;;;;7.40;2.90;;;;;;;14.19;68.76;101499.03;5055716;28;20450;-77
2023/05/13 00:17:41;;;;;;;6.10;2.33;;;;;;;14.20;67.97;101500.66;5055592;28;20530;-77
2023/05/13 00:20:08;;;;;;;8.13;3.03;;;;;;;14.15;68.49;101498.81;5055552;28;20489;-77
2023/05/13 00:22:35;;;;;;;7.40;3.10;;;;;;;14.12;68.26;101493.97;5055215;28;20555;-77
2023/05/13 00:25:02;;;;;;;7.30;3.30;;;;;;;14.11;68.66;101500.53;5055079;28;20529;-77
2023/05/13 00:27:31;;;;;;;7.33;2.80;;;;;;;14.07;66.43;101496.78;5055131;28;20438;-77
2023/05/13 00:29:58;;;;;;;8.67;3.00;;;;;;;14.02;66.49;101505.06;5054759;28;20500;-77
2023/05/13 00:32:25;;;;;;;7.27;2.73;;;;;;;13.94;62.18;101500.31;5054884;28;20971;-77
2023/05/13 00:34:53;;;;;;;8.67;3.67;;;;;;;13.88;64.15;101505.06;5054286;28;20454;-77
2023/05/13 00:37:20;;;;;;;8.47;3.20;;;;;;;13.79;64.07;101510.38;5054862;28;20526;-77
2023/05/13 00:39:47;;;;;;;7.63;3.03;;;;;;;13.73;63.55;101511.59;5054662;28;20486;-77
2023/05/13 00:42:14;;;;;;;11.00;4.20;;;;;;;13.64;65.94;101507.94;5054820;28;20470;-77
2023/05/13 00:44:40;;;;;;;20.67;3.67;;;;;;;13.62;68.01;101508.22;5054788;28;20454;-77
2023/05/13 00:47:07;;;;;;;10.57;3.50;;;;;;;13.58;69.38;101506.41;5055346;28;20529;-77
2023/05/13 00:49:34;;;;;;;8.03;3.40;;;;;;;13.55;70.27;101505.09;5055239;28;20434;-77
2023/05/13 00:52:03;;;;;;;7.93;3.70;;;;;;;13.56;72.14;101514.06;5055266;28;20466;-78
2023/05/13 00:54:30;;;;;;;8.80;3.20;;;;;;;13.51;73.29;101511.44;5055306;28;20812;-78
2023/05/13 00:56:58;;;;;;;9.93;3.27;;;;;;;13.45;73.54;101510.69;5055352;28;20529;-78
2023/05/13 00:59:28;;;;;;;8.20;3.63;;;;;;;13.41;74.08;101517.84;5055403;28;20439;-78
2023/05/13 01:02:00;;;;;;;13.73;3.27;;;;;;;13.39;74.64;101522.78;5055432;28;20512;-77
2023/05/13 01:04:37;;;;;;;13.00;3.33;;;;;;;13.36;74.72;101518.72;5055183;28;20448;-78
2023/05/13 01:07:14;;;;;;;9.87;2.90;;;;;;;13.38;74.79;101521.16;5055360;28;20520;-77
2023/05/13 01:09:52;;;;;;;6.20;2.47;;;;;;;13.44;74.13;101516.44;5055103;28;20446;-78
2023/05/13 01:12:26;;;;;;;12.13;3.40;;;;;;;13.45;74.08;101527.03;5054689;28;20480;-77
2023/05/13 01:15:01;;;;;;;8.53;2.80;;;;;;;13.51;74.00;101522.31;5055237;28;20470;-77
2023/05/13 01:17:34;;;;;;;7.77;3.23;;;;;;;13.51;73.20;101523.13;5054573;28;20509;-78
2023/05/13 01:20:03;;;;;;;8.00;3.50;;;;;;;13.50;72.96;101528.84;5054537;28;20529;-77
2023/05/13 01:22:31;;;;;;;8.60;3.60;;;;;;;13.54;72.55;101533.41;5053682;28;20474;-77
2023/05/13 01:24:58;;;;;;;10.30;3.50;;;;;;;13.58;72.50;101534.44;5054697;28;20446;-78
2023/05/13 01:27:25;;;;;;;8.90;3.10;;;;;;;13.66;72.08;101543.84;5055475;28;20499;-79
2023/05/13 01:29:54;;;;;;;6.50;3.10;;;;;;;13.72;71.75;101539.09;5056731;28;20887;-79
2023/05/13 01:32:22;;;;;;;7.27;2.90;;;;;;;13.72;72.52;101533.66;5054463;28;20462;-79
2023/05/13 01:34:51;;;;;;;9.73;3.07;;;;;;;13.80;71.53;101543.88;5054189;28;20450;-79
2023/05/13 01:37:18;;;;;;;7.33;2.90;;;;;;;13.80;71.01;101539.22;5054020;28;20538;-79
2023/05/13 01:39:47;;;;;;;11.10;3.30;;;;;;;13.81;70.82;101546.31;5053958;28;20543;-79
2023/05/13 01:42:14;;;;;;;6.60;2.90;;;;;;;13.82;71.75;101547.94;5057476;28;20560;-79
2023/05/13 01:44:41;;;;;;;8.03;3.53;;;;;;;13.81;71.95;101542.75;5057421;28;20503;-79
2023/05/13 01:47:07;;;;;;;8.80;2.80;;;;;;;13.78;72.29;101536.00;5057155;28;20478;-79
2023/05/13 01:49:34;;;;;;;7.60;3.00;;;;;;;13.84;72.66;101548.41;5056979;28;20537;-79
2023/05/13 01:52:02;;;;;;;8.80;3.03;;;;;;;13.83;72.54;101557.72;5058318;28;20463;-79
2023/05/13 01:54:29;;;;;;;9.23;3.10;;;;;;;13.78;73.24;101548.81;5058293;28;20450;-79
2023/05/13 01:56:57;;;;;;;8.47;3.40;;;;;;;13.77;72.62;101552.66;5057743;28;20860;-79
2023/05/13 01:59:24;;;;;;;11.87;3.80;;;;;;;13.74;71.64;101548.59;5058154;28;20484;-79
2023/05/13 02:01:51;;;;;;;11.63;3.80;;;;;;;13.79;71.95;101556.69;5057856;28;20494;-79
2023/05/13 02:04:18;;;;;;;10.17;2.83;;;;;;;13.70;71.77;101557.66;5057488;28;20528;-79
2023/05/13 02:06:44;;;;;;;7.13;3.30;;;;;;;13.70;68.32;101553.03;5057355;28;20462;-79
2023/05/13 02:09:11;;;;;;;19.23;3.67;;;;;;;13.63;67.35;101547.97;5058616;28;20534;-79
2023/05/13 02:11:38;;;;;;;10.13;3.53;;;;;;;13.65;66.55;101549.59;5057226;28;20438;-79
2023/05/13 02:14:06;;;;;;;7.20;2.97;;;;;;;13.59;65.17;101546.13;5058646;28;20470;-79
2023/05/13 02:16:33;;;;;;;7.93;3.17;;;;;;;13.51;64.05;101544.91;5056680;28;21017;-79
2023/05/13 02:18:59;;;;;;;8.77;3.73;;;;;;;13.45;66.71;101550.72;5055171;28;20517;-79
2023/05/13 02:21:26;;;;;;;7.80;3.20;;;;;;;13.47;68.31;101552.06;5055041;28;20581;-79
2023/05/13 02:23:52;;;;;;;9.80;3.20;;;;;;;13.48;69.90;101550.94;5054888;28;20493;-79
2023/05/13 02:26:19;;;;;;;11.67;3.50;;;;;;;13.47;69.55;101548.53;5054246;28;20542;-79
2023/05/13 02:28:46;;;;;;;6.93;2.80;;;;;;;13.36;70.12;101554.09;5055394;28;20541;-79
2023/05/13 02:31:14;;;;;;;8.83;3.00;;;;;;;13.46;71.42;101547.72;5054664;28;20438;-79
2023/05/13 02:33:41;;;;;;;7.30;3.23;;;;;;;13.51;71.81;101557.72;5054653;28;20573;-79
2023/05/13 02:36:08;;;;;;;9.73;3.17;;;;;;;13.50;71.68;101553.34;5054733;28;20450;-78
2023/05/13 02:38:34;;;;;;;11.87;4.03;;;;;;;13.41;70.90;101546.97;5054461;28;20541;-79
2023/05/13 02:41:01;;;;;;;8.70;3.60;;;;;;;13.47;71.05;101548.53;5053281;28;20555;-79
2023/05/13 02:43:28;;;;;;;7.63;2.93;;;;;;;13.45;71.38;101562.41;5054041;28;20451;-78
2023/05/13 02:45:55;;;;;;;8.50;3.10;;;;;;;13.45;70.72;101553.44;5054288;28;20446;-79
2023/05/13 02:48:23;;;;;;;6.47;2.97;;;;;;;13.44;69.78;101549.09;5055417;28;20484;-79
2023/05/13 02:50:50;;;;;;;8.33;3.30;;;;;;;13.47;69.58;101553.97;5055586;28;20446;-79
2023/05/13 02:53:16;;;;;;;9.30;3.63;;;;;;;13.46;71.00;101549.59;5055371;28;20524;-79
2023/05/13 02:55:43;;;;;;;9.77;2.93;;;;;;;13.47;70.68;101557.50;5054747;28;20442;-79
2023/05/13 02:58:10;;;;;;;9.30;3.57;;;;;;;13.43;69.99;101563.81;5055791;28;20525;-79
2023/05/13 03:00:36;;;;;;;6.57;2.70;;;;;;;13.48;69.27;101561.03;5058811;28;20568;-79
2023/05/13 03:03:03;;;;;;;8.70;3.47;;;;;;;13.48;68.84;101566.47;5059079;28;20553;-79
2023/05/13 03:05:31;;;;;;;10.23;3.63;;;;;;;13.48;69.01;101566.47;5059125;28;20950;-79
2023/05/13 03:07:58;;;;;;;10.50;3.30;;;;;;;13.42;68.71;101560.31;5058798;28;20896;-79
2023/05/13 03:10:24;;;;;;;7.00;3.10;;;;;;;13.43;68.01;101569.28;5058636;28;20521;-79
2023/05/13 03:12:51;;;;;;;8.07;3.43;;;;;;;13.40;68.56;101564.41;5058319;28;20470;-79
2023/05/13 03:15:18;;;;;;;6.73;2.93;;;;;;;13.38;68.87;101565.53;5058259;28;20540;-79
2023/05/13 03:17:44;;;;;;;7.37;3.00;;;;;;;13.38;68.73;101562.00;5058428;28;20491;-79
2023/05/13 03:20:11;;;;;;;16.73;4.00;;;;;;;13.37;69.18;101574.78;5057787;28;20462;-79
2023/05/13 03:22:40;;;;;;;9.43;3.77;;;;;;;13.30;69.75;101571.63;5058021;28;20553;-79
2023/05/13 03:25:07;;;;;;;6.97;2.87;;;;;;;13.28;69.55;101576.56;5057717;28;21011;-79
2023/05/13 03:27:34;;;;;;;7.40;3.20;;;;;;;13.27;69.61;101574.13;5057557;28;20426;-79
2023/05/13 03:30:01;;;;;;;7.67;3.73;;;;;;;13.28;69.26;101568.41;5057859;28;20452;-79
2023/05/13 03:32:29;;;;;;;9.23;2.80;;;;;;;13.30;69.17;101571.63;5057734;28;20540;-79
2023/05/13 03:34:56;;;;;;;7.20;3.17;;;;;;;13.30;69.02;101574.34;5058103;28;20880;-79
2023/05/13 03:37:23;;;;;;;7.77;3.00;;;;;;;13.29;68.15;101575.47;5058052;28;20449;-79
2023/05/13 03:39:51;;;;;;;7.77;3.53;;;;;;;13.35;67.14;101570.75;5058251;28;20517;-79
2023/05/13 03:42:18;;;;;;;8.03;3.20;;;;;;;13.37;66.10;101577.50;5057779;28;20574;-79
2023/05/13 03:44:44;;;;;;;10.03;2.90;;;;;;;13.36;65.41;101578.59;5057936;28;20446;-79
2023/05/13 03:47:11;;;;;;;7.97;3.90;;;;;;;13.42;67.18;101573.09;5057772;28;20442;-79
2023/05/13 03:49:37;;;;;;;8.33;3.80;;;;;;;13.40;67.55;101580.75;5057077;28;20529;-79
2023/05/13 03:52:06;;;;;;;7.13;2.93;;;;;;;13.40;67.03;101581.53;5057117;28;21058;-79
2023/05/13 03:55:05;;;;;;;10.20;3.50;;;;;;;13.35;68.13;101587.88;5056985;28;20445;-79
2023/05/13 03:57:32;;;;;;;10.73;3.63;;;;;;;13.43;68.37;101591.03;5057549;28;20446;-79
2023/05/13 03:59:59;;;;;;;15.13;3.77;;;;;;;13.44;68.80;101592.66;5057042;28;20473;-79
2023/05/13 04:02:25;;;;;;;8.13;3.13;;;;;;;13.40;69.30;101589.72;5057095;28;20494;-79
2023/05/13 04:04:52;;;;;;;8.13;3.27;;;;;;;13.40;69.20;101594.34;5057742;28;20431;-78
2023/05/13 04:07:19;;;;;;;9.33;3.50;;;;;;;13.43;69.92;101600.00;5058319;28;20521;-78
2023/05/13 04:09:45;;;;;;;8.90;4.07;;;;;;;13.42;69.54;101601.13;5057725;28;20461;-78
2023/05/13 04:12:14;;;;;;;11.03;3.37;;;;;;;13.48;68.61;101605.38;5058387;28;20490;-79
2023/05/13 04:14:41;;;;;;;7.90;2.73;;;;;;;13.47;68.45;101605.69;5058754;28;20449;-78
2023/05/13 04:17:07;;;;;;;8.33;2.93;;;;;;;13.49;68.94;101608.91;5058976;28;20474;-78
2023/05/13 04:19:34;;;;;;;12.93;3.60;;;;;;;13.46;69.21;101614.94;5058437;28;20469;-78
2023/05/13 04:22:01;;;;;;;9.80;4.00;;;;;;;13.38;68.63;101611.78;5058055;28;20494;-79
2023/05/13 04:24:27;;;;;;;7.23;3.60;;;;;;;13.45;67.53;101618.75;5060264;28;20783;-79
2023/05/13 04:26:54;;;;;;;13.10;3.47;;;;;;;13.52;66.72;101625.47;5059291;28;20449;-79
2023/05/13 04:29:22;;;;;;;12.63;3.50;;;;;;;13.62;66.23;101632.66;5057466;28;20442;-79
2023/05/13 04:31:49;;;;;;;7.73;3.60;;;;;;;13.71;65.90;101622.72;5056600;28;20534;-79
2023/05/13 04:34:15;;;;;;;8.40;3.07;;;;;;;13.80;65.88;101628.28;5056217;28;20482;-78
2023/05/13 04:36:42;;;;;;;8.97;3.70;;;;;;;13.88;65.30;101633.88;5057994;28;20784;-79
2023/05/13 04:39:09;;;;;;;13.20;2.93;;;;;;;13.95;64.95;101629.97;5056725;28;20466;-79
2023/05/13 04:41:35;;;;;;;9.90;3.00;;;;;;;13.96;64.53;101634.31;5056323;28;20514;-79
2023/05/13 04:44:04;;;;;;;7.17;3.37;;;;;;;14.00;63.66;101633.41;5057194;28;20533;-79
2023/05/13 04:46:33;;;;;;;8.23;3.43;;;;;;;14.03;63.68;101642.91;5057278;28;20430;-79
2023/05/13 04:48:59;;;;;;;8.20;3.00;;;;;;;14.09;64.20;101639.81;5055855;28;20450;-78
2023/05/13 04:51:26;;;;;;;8.10;3.37;;;;;;;14.10;63.17;101638.69;5055457;28;20447;-79
2023/05/13 04:53:53;;;;;;;9.97;3.00;;;;;;;14.10;64.33;101637.88;5055661;28;20456;-78
2023/05/13 04:56:20;;;;;;;8.60;3.63;;;;;;;14.09;63.94;101641.72;5054911;28;20442;-78
2023/05/13 04:58:47;;;;;;;10.20;3.27;;;;;;;14.07;64.73;101641.19;5054960;28;20435;-79
2023/05/13 05:01:14;;;;;;;17.20;4.27;;;;;;;14.07;64.08;101652.09;5055969;28;21029;-78
2023/05/13 05:03:42;;;;;;;6.50;2.77;;;;;;;14.14;64.12;101642.44;5055721;28;20549;-79
2023/05/13 05:06:08;;;;;;;9.10;3.10;;;;;;;14.20;63.94;101659.50;5055276;28;20832;-78
2023/05/13 05:08:35;;;;;;;8.47;3.37;;;;;;;14.27;63.71;101651.75;5055540;28;20495;-79
2023/05/13 05:11:02;;;;;;;7.40;2.93;;;;;;;14.32;64.10;101654.38;5054765;28;20474;-77
2023/05/13 05:13:28;;;;;;;8.50;4.20;;;;;;;14.41;62.98;101656.44;5054743;28;20553;-78
2023/05/13 05:15:55;;;;;;;8.23;3.53;;;;;;;14.49;63.26;101661.22;5054555;28;20446;-78
2023/05/13 05:18:22;;;;;;;10.27;3.10;;;;;;;14.53;62.43;101656.78;5054446;28;20446;-79
2023/05/13 05:20:51;;;;;;;8.90;2.80;;;;;;;14.61;61.85;101667.00;5055073;28;20542;-78
2023/05/13 05:23:18;;;;;;;8.00;2.43;;;;;;;14.69;62.00;101657.28;5078233;22;20564;-71
2023/05/13 05:25:44;;;;;;;7.33;2.90;;;;;;;14.75;61.94;101665.09;5053741;28;20517;-74
2023/05/13 05:28:11;;;;;;;8.70;2.60;;;;;;;14.80;61.38;101664.97;5033710;28;20451;-71
2023/05/13 05:30:39;;;;;;;8.80;2.77;;;;;;;14.84;60.83;101670.63;5033389;28;21015;-69
2023/05/13 05:33:06;;;;;;;6.43;2.50;;;;;;;14.93;59.65;101673.47;5033364;28;20952;-70
2023/05/13 05:35:35;;;;;;;7.93;2.70;;;;;;;15.02;59.25;101674.38;5033617;28;20449;-70
2023/05/13 05:38:04;;;;;;;9.97;3.30;;;;;;;15.08;58.60;101668.50;5033419;28;20566;-70
2023/05/13 05:40:31;;;;;;;7.40;2.53;;;;;;;15.16;57.99;101677.91;5033212;28;20955;-69
2023/05/13 05:42:57;;;;;;;9.33;3.80;;;;;;;15.24;58.10;101679.09;5033399;28;20565;-71
2023/05/13 05:45:24;;;;;;;7.77;3.00;;;;;;;15.32;57.73;101684.66;5033222;28;20963;-70
2023/05/13 05:47:52;;;;;;;7.57;3.00;;;;;;;15.39;56.04;101684.22;5033310;28;20466;-71
2023/05/13 05:50:19;;;;;;;8.53;2.93;;;;;;;15.48;56.26;101687.84;5033432;28;20451;-71
2023/05/13 05:52:45;;;;;;;13.20;3.30;;;;;;;15.59;54.92;101686.50;5033319;28;20526;-70
2023/05/13 05:55:13;;;;;;;7.47;2.97;;;;;;;15.71;54.81;101691.44;5033315;28;20818;-69
2023/05/13 05:57:40;;;;;;;7.57;3.13;;;;;;;15.79;54.99;101689.91;5032868;28;20547;-70
2023/05/13 06:00:08;;;;;;;10.83;2.77;;;;;;;15.85;55.20;101692.25;5032977;28;20822;-70
2023/05/13 06:02:34;;;;;;;6.97;2.50;;;;;;;15.92;55.79;101691.00;5032884;28;20483;-70
2023/05/13 06:05:01;;;;;;;10.17;3.07;;;;;;;16.02;54.93;101691.53;5033284;28;20921;-70
2023/05/13 06:07:28;;;;;;;9.90;2.80;;;;;;;16.05;54.61;101685.47;5033098;28;20468;-70
2023/05/13 06:09:54;;;;;;;7.40;3.00;;;;;;;16.12;55.23;101690.50;5033229;28;20534;-70
2023/05/13 06:12:22;;;;;;;12.50;3.23;;;;;;;16.14;54.90;101680.06;5033145;28;20530;-70
2023/05/13 06:14:49;;;;;;;8.10;2.67;;;;;;;16.20;53.88;101686.19;5033193;28;20482;-70
2023/05/13 06:17:16;;;;;;;8.23;3.07;;;;;;;16.27;53.85;101683.84;5033056;28;20465;-70
2023/05/13 06:19:42;;;;;;;8.70;3.10;;;;;;;16.39;52.93;101684.88;5032930;28;20482;-70
2023/05/13 06:22:09;;;;;;;8.23;2.60;;;;;;;16.52;52.84;101683.19;5032772;28;20578;-70
2023/05/13 06:24:36;;;;;;;6.33;2.37;;;;;;;16.64;52.46;101680.69;5032546;28;20833;-70
2023/05/13 06:27:03;;;;;;;7.30;2.30;;;;;;;16.73;51.51;101683.44;5032830;28;20459;-70
2023/05/13 06:29:31;;;;;;;9.47;3.10;;;;;;;16.86;49.39;101688.00;5032632;28;20526;-70
2023/05/13 06:31:58;;;;;;;6.97;2.60;;;;;;;16.98;49.25;101683.88;5032884;28;20475;-70
2023/05/13 06:34:24;;;;;;;11.90;2.73;;;;;;;17.10;49.20;101684.09;5035682;28;20439;-70
2023/05/13 06:36:51;;;;;;;19.43;2.80;;;;;;;17.22;49.99;101689.75;5036857;28;20496;-70
2023/05/13 06:39:17;;;;;;;12.20;2.50;;;;;;;17.30;48.98;101685.41;5036906;28;20473;-70
2023/05/13 06:41:44;;;;;;;7.67;2.37;;;;;;;17.40;48.66;101683.19;5036716;28;20486;-70
2023/05/13 06:44:10;;;;;;;7.30;2.33;;;;;;;17.51;48.43;101685.59;5036431;28;20447;-70
2023/05/13 06:46:38;;;;;;;7.40;2.20;;;;;;;17.54;46.65;101680.28;5036634;28;20467;-70
2023/05/13 06:49:05;;;;;;;6.60;2.40;;;;;;;17.66;46.58;101682.38;5036593;28;20443;-67
2023/05/13 06:51:33;;;;;;;6.60;2.07;;;;;;;17.77;46.34;101689.19;5036565;28;20443;-72
2023/05/13 06:54:00;;;;;;;5.80;2.20;;;;;;;17.85;45.89;101691.13;5036552;28;20443;-68
2023/05/13 06:56:28;;;;;;;6.90;2.50;;;;;;;17.97;44.72;101684.16;5036175;28;20550;-71
2023/05/13 06:58:55;;;;;;;6.00;2.20;;;;;;;18.05;45.76;101683.34;5036419;28;20868;-71
2023/05/13 07:01:21;;;;;;;5.97;2.03;;;;;;;18.17;45.43;101690.94;5036442;28;20456;-72
2023/05/13 07:03:49;;;;;;;6.53;1.60;;;;;;;18.23;45.07;101690.41;5036424;28;20534;-72
2023/05/13 07:06:16;;;;;;;7.13;2.50;;;;;;;18.34;43.24;101691.69;5036339;28;20503;-72
2023/05/13 07:08:42;;;;;;;5.60;2.10;;;;;;;18.36;43.62;101681.19;5036387;28;20451;-73
2023/05/13 07:11:09;;;;;;;6.13;1.90;;;;;;;18.46;43.95;101687.47;5036227;28;20443;-73
2023/05/13 07:13:35;;;;;;;6.67;2.37;;;;;;;18.49;44.67;101684.06;5036203;28;20443;-71
2023/05/13 07:16:02;;;;;;;6.10;1.93;;;;;;;18.54;44.21;101681.16;5036106;28;20447;-71
2023/05/13 07:18:29;;;;;;;5.97;2.10;;;;;;;18.58;43.90;101679.34;5035880;28;20972;-71
2023/05/13 07:20:57;;;;;;;7.07;2.60;;;;;;;18.61;43.63;101670.47;5035776;28;20511;-71
2023/05/13 07:23:24;;;;;;;6.40;1.93;;;;;;;18.68;43.52;101670.75;5035527;28;21059;-72
2023/05/13 07:25:51;;;;;;;6.00;2.23;;;;;;;18.70;43.57;101670.47;5035617;28;20443;-71
2023/05/13 07:28:18;;;;;;;6.17;2.10;;;;;;;18.78;43.68;101664.94;5035990;28;20471;-69
2023/05/13 07:30:45;;;;;;;5.83;1.77;;;;;;;18.81;43.14;101677.19;5035841;28;20441;-70
2023/05/13 07:33:11;;;;;;;5.23;1.57;;;;;;;18.87;41.86;101665.72;5035908;28;20477;-70
2023/05/13 07:35:38;;;;;;;6.30;1.90;;;;;;;18.96;41.18;101673.09;5035901;28;20479;-70
2023/05/13 07:38:08;;;;;;;5.67;1.97;;;;;;;18.94;41.50;101665.19;5042350;28;20550;-69
2023/05/13 07:40:35;;;;;;;12.13;2.07;;;;;;;18.93;40.71;101660.81;5035692;28;20431;-69
2023/05/13 07:43:01;;;;;;;5.30;1.87;;;;;;;18.85;40.50;101662.47;5035547;28;20475;-69
2023/05/13 07:45:28;;;;;;;7.37;1.73;;;;;;;18.83;40.23;101670.25;5034702;28;20537;-69
2023/05/13 07:47:55;;;;;;;6.57;2.00;;;;;;;18.88;39.94;101655.53;5035533;28;20467;-69
2023/05/13 07:50:21;;;;;;;5.97;1.63;;;;;;;18.95;39.13;101665.97;5035227;28;20945;-69
2023/05/13 07:52:50;;;;;;;5.20;1.40;;;;;;;18.98;37.67;101655.16;5035419;28;20462;-71
2023/05/13 07:55:18;;;;;;;5.63;1.83;;;;;;;19.10;38.99;101651.69;5035203;28;21034;-71
2023/05/13 07:57:45;;;;;;;4.90;1.63;;;;;;;19.20;38.33;101651.28;5035304;28;20466;-69
2023/05/13 08:00:12;;;;;;;4.80;1.20;;;;;;;19.35;38.64;101653.47;5035072;28;20534;-69
2023/05/13 08:02:39;;;;;;;5.17;1.50;;;;;;;19.47;36.42;101655.47;5034927;28;20491;-69
2023/05/13 08:05:06;;;;;;;5.77;2.17;;;;;;;19.44;35.97;101656.16;5035339;28;20443;-69
2023/05/13 08:07:33;;;;;;;6.70;2.17;;;;;;;19.48;35.56;101650.78;5034855;28;20547;-69
2023/05/13 08:09:59;;;;;;;4.80;1.40;;;;;;;19.47;37.35;101646.41;5034903;28;20451;-69
2023/05/13 08:12:27;;;;;;;5.30;1.63;;;;;;;19.55;36.99;101654.59;5035148;28;20471;-69
2023/05/13 08:14:54;;;;;;;4.77;1.30;;;;;;;19.68;35.07;101641.75;5035055;28;20443;-69
2023/05/13 08:17:21;;;;;;;5.03;1.47;;;;;;;19.61;34.91;101645.06;5034627;28;20494;-69
2023/05/13 08:19:48;;;;;;;4.97;1.20;;;;;;;19.71;35.76;101660.34;5034973;28;20487;-69
2023/05/13 08:22:14;;;;;;;5.20;1.53;;;;;;;19.76;35.21;101659.31;5034703;28;20586;-69
2023/05/13 08:24:41;;;;;;;6.10;2.00;;;;;;;19.84;34.82;101652.94;5034913;28;20524;-69
2023/05/13 08:27:08;;;;;;;5.80;1.47;;;;;;;19.96;34.27;101654.91;5034719;28;20501;-69
2023/05/13 08:29:36;;;;;;;5.30;2.20;;;;;;;20.01;35.84;101650.03;5034472;28;20447;-69
2023/05/13 08:32:03;;;;;;;6.70;1.40;;;;;;;20.06;35.88;101660.00;5034702;28;20443;-69
2023/05/13 08:34:29;;;;;;;5.50;1.87;;;;;;;20.13;36.08;101658.28;5034422;28;20972;-69
2023/05/13 08:36:56;;;;;;;4.93;1.63;;;;;;;20.13;35.91;101663.00;5034612;28;20830;-69
2023/05/13 08:39:22;;;;;;;8.03;1.97;;;;;;;20.10;36.02;101666.44;5034645;28;20439;-69
2023/05/13 08:41:51;;;;;;;8.50;1.50;;;;;;;20.12;36.79;101664.16;5034539;28;20534;-70
2023/05/13 08:44:18;;;;;;;6.10;1.87;;;;;;;20.20;37.39;101657.75;5034092;28;20510;-71
2023/05/13 08:46:55;;;;;;;5.57;1.87;;;;;;;20.29;36.49;101655.72;5034071;28;20972;-71
2023/05/13 08:49:22;;;;;;;7.63;2.10;;;;;;;20.30;37.16;101657.31;5034139;28;20927;-69
2023/05/13 08:51:48;;;;;;;6.83;1.70;;;;;;;20.35;36.63;101668.09;5034337;28;20451;-70
2023/05/13 08:54:16;;;;;;;6.63;1.90;;;;;;;20.40;37.22;101658.81;5034436;28;20449;-70
2023/05/13 08:56:43;;;;;;;6.33;1.60;;;;;;;20.44;37.96;101664.44;5034358;28;20505;-71
2023/05/13 08:59:09;;;;;;;6.40;2.20;;;;;;;20.45;36.59;101657.78;5034158;28;20526;-69
2023/05/13 09:01:36;;;;;;;5.57;1.80;;;;;;;20.49;38.38;101662.28;5034141;28;20443;-69
2023/05/13 09:04:08;;;;;;;14.30;2.60;;;;;;;20.58;37.61;101653.94;5034130;28;20505;-69
2023/05/13 09:06:35;;;;;;;5.47;1.30;;;;;;;20.70;37.66;101656.69;5033745;28;20999;-69
2023/05/13 09:09:03;;;;;;;6.27;2.00;;;;;;;20.72;36.75;101653.59;5034079;28;20518;-69
2023/05/13 09:11:32;;;;;;;5.80;1.87;;;;;;;20.79;37.37;101653.84;5034004;28;20447;-69
2023/05/13 09:13:59;;;;;;;5.80;2.00;;;;;;;20.84;38.22;101651.66;5033865;28;20469;-69
2023/05/13 09:16:28;;;;;;;6.73;2.10;;;;;;;20.88;38.19;101640.75;5033795;28;20459;-69
2023/05/13 09:18:58;;;;;;;6.60;2.37;;;;;;;20.83;37.42;101650.06;5033803;28;20440;-70
2023/05/13 09:21:30;;;;;;;9.30;1.93;;;;;;;20.92;37.72;101647.19;5033742;28;20469;-69
2023/05/13 09:24:08;;;;;;;5.20;1.77;;;;;;;21.01;36.89;101649.81;5033178;28;20518;-69
2023/05/13 09:26:35;;;;;;;8.47;2.30;;;;;;;21.06;36.08;101646.81;5033452;28;20469;-69
2023/05/13 09:29:19;;;;;;;7.73;2.33;;;;;;;21.12;36.37;101646.25;5033582;28;20473;-69
2023/05/13 09:31:48;;;;;;;5.10;1.50;;;;;;;21.12;37.23;101639.94;5033562;28;20447;-68
2023/05/13 09:34:18;;;;;;;5.60;2.03;;;;;;;21.13;38.60;101641.53;5033262;28;20813;-68
2023/05/13 09:36:54;;;;;;;6.73;2.37;;;;;;;21.20;36.38;101652.75;5033213;28;20996;-68
2023/05/13 09:39:21;;;;;;;6.00;1.70;;;;;;;21.27;36.30;101647.47;5033212;28;20880;-68
2023/05/13 09:41:47;;;;;;;6.30;1.90;;;;;;;21.35;35.35;101660.34;5033043;28;20542;-68
2023/05/13 09:44:14;;;;;;;5.90;1.83;;;;;;;21.39;34.25;101649.44;5033289;28;20487;-68
2023/05/13 09:46:42;;;;;;;6.83;1.67;;;;;;;21.48;35.58;101652.06;5033156;28;20893;-68
2023/05/13 09:49:09;;;;;;;6.47;2.00;;;;;;;21.54;33.87;101642.38;5033324;28;20522;-68
2023/05/13 09:51:36;;;;;;;5.10;1.60;;;;;;;21.56;32.94;101643.66;5033416;28;20455;-68
2023/05/13 09:54:05;;;;;;;6.10;2.20;;;;;;;21.64;33.89;101644.63;5032980;28;20481;-68
2023/05/13 09:56:35;;;;;;;12.40;2.20;;;;;;;21.72;33.90;101638.19;5032919;28;20471;-68
2023/05/13 09:59:02;;;;;;;10.23;1.97;;;;;;;21.75;33.58;101642.19;5032853;28;20483;-68
2023/05/13 10:01:29;;;;;;;5.20;1.60;;;;;;;21.84;34.53;101637.31;5032924;28;21019;-68
2023/05/13 10:03:58;;;;;;;5.40;1.87;;;;;;;21.97;33.90;101630.59;5033149;28;20570;-68
2023/05/13 10:06:26;;;;;;;5.33;2.10;;;;;;;22.06;33.92;101639.50;5033099;28;20884;-69
2023/05/13 10:08:54;;;;;;;5.80;1.83;;;;;;;22.25;33.96;101630.56;5032601;28;20855;-68
2023/05/13 10:11:23;;;;;;;5.73;2.00;;;;;;;22.31;33.50;101636.63;5033180;28;20494;-71
2023/05/13 10:14:00;;;;;;;4.60;1.30;;;;;;;22.36;32.31;101631.66;5033101;28;20446;-72
2023/05/13 10:16:27;;;;;;;6.43;1.53;;;;;;;22.41;32.58;101628.63;5033008;28;20466;-69
2023/05/13 10:18:56;;;;;;;4.90;1.30;;;;;;;22.38;31.95;101625.78;5033127;28;20447;-72
2023/05/13 10:21:22;;;;;;;6.23;1.60;;;;;;;22.41;30.87;101636.91;5033102;28;20442;-70
2023/05/13 10:23:50;;;;;;;4.93;1.73;;;;;;;22.48;30.53;101639.03;5032556;28;20491;-68
2023/05/13 10:26:17;;;;;;;5.63;1.53;;;;;;;22.60;31.81;101640.91;5032897;28;20470;-68
2023/05/13 10:28:46;;;;;;;11.10;1.60;;;;;;;22.70;31.28;101634.84;5032964;28;20537;-69
2023/05/13 10:31:12;;;;;;;5.37;1.67;;;;;;;22.82;31.67;101634.72;5032990;28;20439;-69
2023/05/13 10:33:40;;;;;;;4.90;1.53;;;;;;;22.95;31.78;101620.84;5032894;28;20439;-68
2023/05/13 10:36:21;;;;;;;8.10;2.70;;;;;;;23.02;30.31;101629.28;5032533;28;20932;-68
2023/05/13 10:39:05;;;;;;;5.70;1.60;;;;;;;23.09;30.21;101627.50;5032956;28;20431;-69
2023/05/13 10:42:08;;;;;;;5.40;1.50;;;;;;;23.18;29.63;101621.75;5032902;28;20435;-69
2023/05/13 10:44:36;;;;;;;4.73;1.37;;;;;;;23.26;29.92;101631.81;5032423;28;21017;-68
2023/05/13 10:47:03;;;;;;;5.23;1.57;;;;;;;23.26;30.45;101640.09;5032786;28;20502;-68
2023/05/13 10:49:33;;;;;;;5.23;1.50;;;;;;;23.31;29.73;101625.19;5032812;28;20438;-68
2023/05/13 10:52:04;;;;;;;4.90;1.43;;;;;;;23.32;30.26;101632.31;5032533;28;20936;-69
2023/05/13 10:54:37;;;;;;;4.77;1.43;;;;;;;23.37;29.11;101613.50;5032751;28;20458;-69
2023/05/13 10:57:04;;;;;;;5.90;1.77;;;;;;;23.51;29.90;101623.25;5032640;28;20466;-68
2023/05/13 10:59:32;;;;;;;5.70;1.80;;;;;;;23.64;29.67;101620.00;5032395;28;20447;-69
2023/05/13 11:02:02;;;;;;;6.03;1.90;;;;;;;23.88;29.67;101615.31;5032637;28;20867;-69
2023/05/13 11:04:29;;;;;;;5.13;1.50;;;;;;;23.82;28.58;101620.34;5032584;28;20922;-69
2023/05/13 11:07:15;;;;;;;5.00;1.50;;;;;;;23.94;29.58;101618.56;5032496;28;20466;-69
2023/05/13 11:09:48;;;;;;;4.70;1.47;;;;;;;24.10;28.47;101625.59;5032296;28;20454;-71
2023/05/13 11:12:15;;;;;;;5.53;1.90;;;;;;;24.45;27.82;101621.88;5032617;28;20859;-70
2023/05/13 11:14:43;;;;;;;5.90;1.60;;;;;;;25.02;27.85;101622.75;5032607;28;20538;-69
2023/05/13 11:17:19;;;;;;;5.47;1.57;;;;;;;25.88;28.10;101632.97;5033394;28;20467;-70
2023/05/13 11:19:47;;;;;;;5.63;1.70;;;;;;;26.36;26.58;101632.25;5032540;28;20840;-70
2023/05/13 11:22:18;;;;;;;9.30;1.87;;;;;;;26.96;26.17;101625.56;5035792;28;20461;-70
2023/05/13 11:24:46;;;;;;;4.40;1.20;;;;;;;27.09;25.70;101627.69;5036000;28;20467;-70
2023/05/13 11:27:15;;;;;;;4.97;1.60;;;;;;;27.61;26.32;101633.06;5035895;28;20558;-70